Time;durP1;ratioP1;P1;durP2;ratioP2;P2;SDS_P1;SDS_P2;PMS_P1;PMS_P2;Temp;Humidity;BMP_temperature;BMP_pressure;BME280_temperature;BME280_humidity;BME280_pressure;Samples;Min_cycle;Max_cycle;Signal;HPM_P1;HPM_P2
2024/01/29 00:01:23;;;;;;;0.70;0.70;;;;;;;1.22;100.00;100452.88;5025884;28;20140;-59
2024/01/29 00:03:50;;;;;;;0.70;0.70;;;;;;;1.12;100.00;100448.63;5044670;28;20107;-59
2024/01/29 00:06:18;;;;;;;0.70;0.70;;;;;;;0.74;100.00;100456.66;5045112;28;20051;-59
2024/01/29 00:08:45;;;;;;;0.70;0.70;;;;;;;0.86;100.00;100449.38;5043687;28;20048;-59
2024/01/29 00:11:13;;;;;;;0.70;0.70;;;;;;;1.05;100.00;100451.88;5025464;28;20053;-59
2024/01/29 00:13:40;;;;;;;0.80;0.80;;;;;;;1.19;100.00;100449.69;5041874;28;20509;-59
2024/01/29 00:16:07;;;;;;;0.75;0.75;;;;;;;0.89;100.00;100449.06;5044088;28;20175;-59
2024/01/29 00:18:35;;;;;;;0.70;0.70;;;;;;;0.60;100.00;100450.09;5041870;28;20033;-59
2024/01/29 00:21:03;;;;;;;0.90;0.90;;;;;;;0.30;100.00;100447.75;5042098;28;20439;-59
2024/01/29 00:23:31;;;;;;;0.70;0.70;;;;;;;0.47;100.00;100454.06;5041793;28;20499;-59
2024/01/29 00:25:58;;;;;;;0.70;0.70;;;;;;;0.40;100.00;100445.88;5042835;28;20049;-59
2024/01/29 00:28:26;;;;;;;0.75;0.75;;;;;;;0.46;100.00;100453.22;5042131;28;20044;-59
2024/01/29 00:30:53;;;;;;;0.60;0.60;;;;;;;0.84;100.00;100452.16;5037480;28;20578;-59
2024/01/29 00:33:22;;;;;;;0.65;0.65;;;;;;;0.76;100.00;100443.34;5042243;28;20041;-59
2024/01/29 00:35:49;;;;;;;0.77;0.77;;;;;;;1.06;100.00;100444.78;5042713;28;20044;-60
2024/01/29 00:38:16;;;;;;;0.70;0.70;;;;;;;0.95;100.00;100442.34;5043187;28;20498;-59
2024/01/29 00:40:43;;;;;;;0.60;0.60;;;;;;;0.90;100.00;100428.78;5040322;28;20095;-59
2024/01/29 00:43:10;;;;;;;0.65;0.65;;;;;;;1.13;100.00;100439.75;5042567;28;20099;-59
2024/01/29 00:45:40;;;;;;;0.50;0.50;;;;;;;1.11;100.00;100444.34;5005578;28;20057;-59
2024/01/29 00:48:07;;;;;;;;;;;;;;;1.18;100.00;100435.66;5041604;28;20060;-59
2024/01/29 00:50:34;;;;;;;0.70;0.70;;;;;;;1.03;100.00;100438.00;5041713;28;19967;-60
2024/01/29 00:53:01;;;;;;;0.68;0.68;;;;;;;1.45;100.00;100436.53;5042779;28;20041;-59
2024/01/29 00:55:28;;;;;;;0.65;0.65;;;;;;;1.49;100.00;100432.59;5003726;28;20049;-59
2024/01/29 00:57:55;;;;;;;0.60;0.60;;;;;;;1.45;100.00;100433.91;5041305;28;20757;-59
2024/01/29 01:00:22;;;;;;;0.70;0.70;;;;;;;1.37;100.00;100439.91;5037987;28;20130;-59
2024/01/29 01:02:51;;;;;;;0.85;0.85;;;;;;;1.17;100.00;100430.50;5041908;28;20284;-59
2024/01/29 01:05:20;;;;;;;0.73;0.73;;;;;;;1.43;100.00;100428.75;5041002;28;20045;-59
2024/01/29 01:07:47;;;;;;;0.65;0.65;;;;;;;1.48;100.00;100428.28;5042604;28;20147;-59
2024/01/29 01:10:14;;;;;;;0.70;0.70;;;;;;;1.54;100.00;100432.13;5042152;28;20122;-59
2024/01/29 01:12:41;;;;;;;0.60;0.60;;;;;;;1.44;100.00;100426.94;5041032;28;20040;-59
2024/01/29 01:15:08;;;;;;;0.70;0.70;;;;;;;1.13;100.00;100422.06;5041434;28;20417;-59
2024/01/29 01:17:35;;;;;;;0.60;0.60;;;;;;;1.07;100.00;100426.16;5040887;28;20071;-59
2024/01/29 01:20:06;;;;;;;0.70;0.70;;;;;;;0.94;100.00;100420.41;5041543;28;20061;-59
2024/01/29 01:22:33;;;;;;;0.70;0.70;;;;;;;0.89;100.00;100430.59;5042521;28;20693;-60
2024/01/29 01:25:00;;;;;;;0.60;0.60;;;;;;;0.78;100.00;100425.53;5041207;28;20057;-59
2024/01/29 01:27:27;;;;;;;0.55;0.55;;;;;;;0.91;100.00;100425.19;5037545;28;20049;-59
2024/01/29 01:29:54;;;;;;;0.80;0.80;;;;;;;1.12;100.00;100428.31;5041507;28;20175;-59
2024/01/29 01:32:21;;;;;;;0.73;0.73;;;;;;;1.08;100.00;100433.09;5041368;28;20041;-59
2024/01/29 01:34:48;;;;;;;0.70;0.70;;;;;;;1.18;100.00;100437.47;5022557;28;20052;-59
2024/01/29 01:37:17;;;;;;;0.70;0.70;;;;;;;1.10;100.00;100432.09;5041627;28;20614;-59
2024/01/29 01:39:44;;;;;;;0.68;0.68;;;;;;;1.13;100.00;100430.00;5040266;28;21139;-59
2024/01/29 01:42:11;;;;;;;0.80;0.80;;;;;;;1.67;100.00;100437.81;5040281;28;20225;-59
2024/01/29 01:44:38;;;;;;;0.80;0.80;;;;;;;1.20;100.00;100424.91;5036612;28;20069;-60
2024/01/29 01:47:05;;;;;;;0.80;0.80;;;;;;;0.67;100.00;100431.84;5043030;28;20045;-59
2024/01/29 01:49:32;;;;;;;0.70;0.70;;;;;;;0.36;100.00;100434.81;5042696;28;20443;-59
2024/01/29 01:51:59;;;;;;;0.70;0.70;;;;;;;0.23;100.00;100444.06;5040731;28;20598;-59
2024/01/29 01:54:27;;;;;;;0.80;0.80;;;;;;;0.26;100.00;100428.75;5040821;28;20047;-59
2024/01/29 01:56:55;;;;;;;0.70;0.70;;;;;;;0.28;100.00;100442.63;5040426;28;20052;-59
2024/01/29 01:59:22;;;;;;;0.60;0.60;;;;;;;0.52;100.00;100434.16;5040376;28;20037;-59
2024/01/29 02:01:50;;;;;;;0.80;0.80;;;;;;;0.62;100.00;100442.03;5040191;28;20072;-59
2024/01/29 02:04:17;;;;;;;0.70;0.70;;;;;;;0.76;100.00;100441.53;5042305;28;20305;-59
2024/01/29 02:06:44;;;;;;;0.60;0.60;;;;;;;0.81;100.00;100436.63;5041025;28;20049;-59
2024/01/29 02:09:11;;;;;;;0.60;0.60;;;;;;;0.91;100.00;100431.28;5041487;28;20045;-59
2024/01/29 02:11:39;;;;;;;0.68;0.68;;;;;;;1.10;100.00;100440.00;5039166;28;20045;-59
2024/01/29 02:14:07;;;;;;;0.80;0.80;;;;;;;1.75;100.00;100435.25;5041909;28;20044;-59
2024/01/29 02:16:34;;;;;;;0.70;0.70;;;;;;;1.86;100.00;100436.78;5045299;28;20047;-59
2024/01/29 02:19:03;;;;;;;0.60;0.60;;;;;;;1.74;100.00;100436.22;5046201;28;20053;-59
2024/01/29 02:21:30;;;;;;;0.65;0.65;;;;;;;1.27;100.00;100437.38;5047128;28;20037;-59
2024/01/29 02:23:58;;;;;;;0.60;0.60;;;;;;;1.00;100.00;100432.16;5046259;28;20491;-59
2024/01/29 02:26:25;;;;;;;0.60;0.60;;;;;;;0.59;100.00;100434.41;5027396;28;20045;-59
2024/01/29 02:28:52;;;;;;;0.70;0.70;;;;;;;0.83;100.00;100431.22;5045091;28;20072;-59
2024/01/29 02:31:19;;;;;;;0.70;0.70;;;;;;;0.47;100.00;100428.50;5045247;28;20041;-59
2024/01/29 02:33:46;;;;;;;0.68;0.68;;;;;;;0.38;100.00;100429.41;5043977;28;20087;-59
2024/01/29 02:36:13;;;;;;;0.68;0.68;;;;;;;0.31;100.00;100428.31;5027712;28;20048;-59
2024/01/29 02:38:42;;;;;;;0.57;0.57;;;;;;;0.20;100.00;100431.97;5043359;28;20267;-59
2024/01/29 02:41:10;;;;;;;0.68;0.68;;;;;;;0.20;100.00;100435.44;5027283;28;20087;-59
2024/01/29 02:43:38;;;;;;;0.70;0.70;;;;;;;0.25;100.00;100431.53;5044297;28;20491;-59
2024/01/29 02:46:05;;;;;;;0.80;0.80;;;;;;;0.31;100.00;100433.59;5041480;28;20196;-59
2024/01/29 02:48:32;;;;;;;0.70;0.70;;;;;;;0.76;100.00;100438.06;5042948;28;20060;-60
2024/01/29 02:50:59;;;;;;;0.70;0.70;;;;;;;0.56;100.00;100430.25;5043502;28;20794;-59
2024/01/29 02:53:26;;;;;;;0.75;0.75;;;;;;;0.84;100.00;100435.50;5042123;28;20033;-60
2024/01/29 02:55:53;;;;;;;0.80;0.80;;;;;;;1.35;100.00;100439.25;5028078;28;20040;-59
2024/01/29 02:58:21;;;;;;;0.80;0.80;;;;;;;1.03;100.00;100430.06;5044453;28;20051;-59
2024/01/29 03:00:49;;;;;;;0.80;0.80;;;;;;;0.95;100.00;100437.06;5047329;28;20032;-59
2024/01/29 03:03:16;;;;;;;0.80;0.80;;;;;;;1.28;100.00;100438.22;5045393;28;20049;-60
2024/01/29 03:05:43;;;;;;;0.70;0.70;;;;;;;1.35;100.00;100431.34;5042639;28;20037;-59
2024/01/29 03:08:10;;;;;;;0.70;0.70;;;;;;;1.14;100.00;100441.38;5042555;28;20080;-58
2024/01/29 03:10:37;;;;;;;0.70;0.70;;;;;;;0.90;100.00;100434.91;5043449;28;20359;-59
2024/01/29 03:13:04;;;;;;;0.70;0.70;;;;;;;0.78;100.00;100436.09;5044205;28;20059;-58
2024/01/29 03:15:34;;;;;;;0.80;0.80;;;;;;;0.80;100.00;100442.03;5042550;28;20057;-58
2024/01/29 03:18:01;;;;;;;0.70;0.70;;;;;;;0.89;100.00;100440.31;5045810;28;20048;-58
2024/01/29 03:20:28;;;;;;;0.70;0.70;;;;;;;0.99;100.00;100447.19;5044220;28;20056;-58
2024/01/29 03:22:55;;;;;;;0.50;0.50;;;;;;;1.04;100.00;100447.56;5044329;28;20175;-58
2024/01/29 03:25:22;;;;;;;0.63;0.63;;;;;;;0.80;100.00;100449.97;5042034;28;20393;-58
2024/01/29 03:27:49;;;;;;;0.70;0.70;;;;;;;0.53;100.00;100440.28;5046045;28;20650;-58
2024/01/29 03:30:16;;;;;;;0.63;0.63;;;;;;;0.58;100.00;100448.59;5045089;28;20044;-58
2024/01/29 03:32:45;;;;;;;0.77;0.77;;;;;;;0.25;100.00;100439.44;5043421;28;20041;-58
2024/01/29 03:35:12;;;;;;;0.75;0.75;;;;;;;0.35;100.00;100440.22;5044171;28;20574;-58
2024/01/29 03:37:39;;;;;;;0.60;0.60;;;;;;;0.36;100.00;100445.34;5041577;28;20050;-58
2024/01/29 03:40:07;;;;;;;0.60;0.60;;;;;;;0.32;100.00;100443.97;5042637;28;20044;-58
2024/01/29 03:42:34;;;;;;;0.80;0.80;;;;;;;0.24;100.00;100445.69;5042354;28;20532;-58
2024/01/29 03:45:01;;;;;;;0.80;0.80;;;;;;;0.12;100.00;100445.88;5025507;28;20052;-58
2024/01/29 03:47:29;;;;;;;0.70;0.70;;;;;;;0.24;100.00;100448.34;5043233;28;20040;-58
2024/01/29 03:49:59;;;;;;;0.70;0.70;;;;;;;0.35;100.00;100445.50;5042998;28;20106;-58
2024/01/29 03:52:26;;;;;;;0.70;0.70;;;;;;;0.54;100.00;100450.69;5041470;28;20049;-58
2024/01/29 03:54:53;;;;;;;0.70;0.70;;;;;;;0.56;100.00;100443.44;5039417;28;20052;-58
2024/01/29 03:57:20;;;;;;;0.70;0.70;;;;;;;0.58;100.00;100441.50;5043911;28;20053;-58
2024/01/29 03:59:47;;;;;;;0.70;0.70;;;;;;;0.34;100.00;100438.56;5043724;28;20961;-58
2024/01/29 04:02:14;;;;;;;0.70;0.70;;;;;;;0.34;100.00;100443.84;5024550;28;20048;-58
2024/01/29 04:04:43;;;;;;;0.60;0.60;;;;;;;0.21;100.00;100446.81;5042843;28;20053;-58
2024/01/29 04:07:12;;;;;;;0.70;0.70;;;;;;;0.19;100.00;100430.31;5024929;28;20462;-58
2024/01/29 04:09:39;;;;;;;0.70;0.70;;;;;;;0.32;100.00;100440.53;5041916;28;20414;-58
2024/01/29 04:12:07;;;;;;;0.65;0.65;;;;;;;0.24;100.00;100451.78;5040806;28;20049;-58
2024/01/29 04:14:34;;;;;;;0.65;0.65;;;;;;;0.11;100.00;100440.75;5044522;28;20048;-58
2024/01/29 04:17:04;;;;;;;0.90;0.90;;;;;;;0.15;100.00;100434.22;5044250;28;20041;-58
2024/01/29 04:19:31;;;;;;;0.70;0.70;;;;;;;0.10;100.00;100437.31;5036042;28;20132;-58
2024/01/29 04:21:58;;;;;;;0.70;0.70;;;;;;;0.25;100.00;100429.75;5039464;28;20052;-59
2024/01/29 04:24:28;;;;;;;0.80;0.80;;;;;;;0.22;100.00;100424.75;5024795;28;20044;-58
2024/01/29 04:26:55;;;;;;;0.77;0.77;;;;;;;0.11;100.00;100427.59;5043259;28;20059;-59
2024/01/29 04:29:23;;;;;;;0.82;0.82;;;;;;;0.25;100.00;100423.63;5042416;28;20049;-59
2024/01/29 04:31:50;;;;;;;0.60;0.60;;;;;;;0.67;100.00;100423.94;5042491;28;20099;-59
2024/01/29 04:34:17;;;;;;;0.75;0.75;;;;;;;1.18;100.00;100416.34;5022539;28;20442;-59
2024/01/29 04:36:44;;;;;;;0.80;0.80;;;;;;;1.46;100.00;100411.75;5040712;28;20141;-59
2024/01/29 04:39:11;;;;;;;0.70;0.70;;;;;;;1.77;100.00;100417.41;5042437;28;20041;-59
2024/01/29 04:41:39;;;;;;;0.65;0.65;;;;;;;2.17;100.00;100421.25;5038742;28;20164;-59
2024/01/29 04:44:06;;;;;;;0.70;0.70;;;;;;;2.12;100.00;100416.44;5038568;28;20065;-59
2024/01/29 04:46:35;;;;;;;0.60;0.60;;;;;;;1.72;100.00;100415.25;5043834;28;20076;-59
2024/01/29 04:49:03;;;;;;;0.60;0.60;;;;;;;0.94;100.00;100420.41;5023261;28;20041;-59
2024/01/29 04:51:30;;;;;;;0.65;0.65;;;;;;;0.52;100.00;100422.78;5041952;28;20126;-59
2024/01/29 04:53:57;;;;;;;0.70;0.70;;;;;;;0.11;100.00;100433.69;5041570;28;20133;-59
2024/01/29 04:56:24;;;;;;;0.70;0.70;;;;;;;-0.13;100.00;100428.91;5043105;28;20037;-59
2024/01/29 04:58:52;;;;;;;0.60;0.60;;;;;;;-0.02;100.00;100430.56;5040426;28;20122;-58
2024/01/29 05:01:19;;;;;;;0.77;0.77;;;;;;;-0.21;100.00;100441.97;5021188;28;20128;-59
2024/01/29 05:03:47;;;;;;;0.63;0.63;;;;;;;-0.34;100.00;100442.28;5040104;28;20041;-59
2024/01/29 05:06:14;;;;;;;0.70;0.70;;;;;;;-0.38;100.00;100454.06;5019324;28;20044;-58
2024/01/29 05:08:42;;;;;;;0.68;0.68;;;;;;;-0.17;100.00;100442.53;5041575;28;20414;-59
2024/01/29 05:11:09;;;;;;;0.80;0.80;;;;;;;-0.35;100.00;100443.28;5042763;28;20128;-58
2024/01/29 05:13:36;;;;;;;0.73;0.73;;;;;;;0.11;100.00;100432.84;5016513;28;20048;-59
2024/01/29 05:16:06;;;;;;;0.70;0.70;;;;;;;0.34;100.00;100443.84;5042577;28;20129;-58
2024/01/29 05:18:33;;;;;;;0.80;0.80;;;;;;;0.12;100.00;100445.88;5039494;28;20045;-59
2024/01/29 05:21:00;;;;;;;0.80;0.80;;;;;;;-0.13;100.00;100446.53;5042398;28;20068;-59
2024/01/29 05:23:27;;;;;;;0.70;0.70;;;;;;;-0.22;100.00;100443.78;5039873;28;20114;-58
2024/01/29 05:25:55;;;;;;;0.80;0.80;;;;;;;-0.27;100.00;100451.28;5043970;28;20361;-59
2024/01/29 05:28:22;;;;;;;0.80;0.80;;;;;;;-0.28;100.00;100454.06;5039711;28;20055;-59
2024/01/29 05:30:52;;;;;;;0.70;0.70;;;;;;;-0.40;100.00;100450.78;5040907;28;20580;-58
2024/01/29 05:33:20;;;;;;;0.80;0.80;;;;;;;-0.19;100.00;100447.09;5040892;28;20057;-59
2024/01/29 05:35:47;;;;;;;0.80;0.80;;;;;;;0.40;100.00;100443.25;5042078;28;20509;-59
2024/01/29 05:38:14;;;;;;;0.70;0.70;;;;;;;0.50;100.00;100448.47;5041358;28;20049;-59
2024/01/29 05:40:41;;;;;;;0.80;0.80;;;;;;;0.37;100.00;100452.28;5042744;28;21210;-59
2024/01/29 05:43:08;;;;;;;0.88;0.88;;;;;;;0.12;100.00;100452.97;5038829;28;20599;-58
2024/01/29 05:45:35;;;;;;;0.80;0.80;;;;;;;0.25;100.00;100460.53;5038621;28;20064;-58
2024/01/29 05:48:07;;;;;;;0.80;0.80;;;;;;;0.13;100.00;100460.75;5023719;28;20495;-58
2024/01/29 05:50:35;;;;;;;0.70;0.70;;;;;;;0.07;100.00;100453.38;5039906;28;20049;-58
2024/01/29 05:53:02;;;;;;;0.75;0.75;;;;;;;0.13;100.00;100458.09;5018785;28;20404;-58
2024/01/29 05:55:29;;;;;;;0.70;0.70;;;;;;;0.01;100.00;100468.97;5041962;28;20052;-58
2024/01/29 05:57:56;;;;;;;0.70;0.70;;;;;;;0.10;100.00;100479.50;5039840;28;20041;-58
2024/01/29 06:00:23;;;;;;;0.70;0.70;;;;;;;-0.11;100.00;100470.94;5039931;28;20068;-58
2024/01/29 06:02:51;;;;;;;0.70;0.70;;;;;;;-0.11;100.00;100482.31;5039312;28;20041;-58
2024/01/29 06:05:18;;;;;;;0.70;0.70;;;;;;;-0.07;100.00;100477.59;5039739;28;20051;-58
2024/01/29 06:07:46;;;;;;;0.80;0.80;;;;;;;0.02;100.00;100474.06;5040268;28;20080;-58
2024/01/29 06:10:14;;;;;;;0.90;0.90;;;;;;;0.01;100.00;100482.16;5039985;28;20061;-58
2024/01/29 06:12:42;;;;;;;0.70;0.70;;;;;;;-0.18;100.00;100478.56;5039859;28;20037;-58
2024/01/29 06:15:09;;;;;;;0.80;0.80;;;;;;;-0.22;100.00;100474.56;5041809;28;20135;-58
2024/01/29 06:17:36;;;;;;;0.68;0.68;;;;;;;-0.22;100.00;100479.84;5014131;28;20050;-58
2024/01/29 06:20:04;;;;;;;0.80;0.80;;;;;;;-0.51;100.00;100478.06;5042449;28;20053;-58
2024/01/29 06:22:31;;;;;;;0.70;0.70;;;;;;;-0.38;100.00;100483.03;5041205;28;20051;-58
2024/01/29 06:25:00;;;;;;;0.70;0.70;;;;;;;-0.49;100.00;100483.22;5040333;28;20087;-58
2024/01/29 06:27:27;;;;;;;0.90;0.90;;;;;;;-0.51;100.00;100490.41;5040579;28;20069;-58
2024/01/29 06:29:54;;;;;;;0.70;0.70;;;;;;;-0.37;100.00;100494.44;5039757;28;20048;-58
2024/01/29 06:32:22;;;;;;;0.77;0.77;;;;;;;-0.03;100.00;100489.50;5040302;28;20122;-58
2024/01/29 06:34:56;;;;;;;0.80;0.80;;;;;;;-0.14;100.00;100493.13;5041448;28;20503;-59
2024/01/29 06:37:23;;;;;;;0.80;0.80;;;;;;;0.43;100.00;100493.09;5037917;28;20036;-58
2024/01/29 06:39:50;;;;;;;0.68;0.68;;;;;;;0.50;100.00;100495.97;5038929;28;20052;-59
2024/01/29 06:42:19;;;;;;;0.80;0.80;;;;;;;0.12;100.00;100493.34;5021033;28;20362;-59
2024/01/29 06:44:46;;;;;;;0.90;0.90;;;;;;;-0.37;100.00;100497.06;5038904;28;20313;-59
2024/01/29 06:47:15;;;;;;;0.80;0.80;;;;;;;-0.36;100.00;100494.28;5038973;28;20134;-59
2024/01/29 06:49:42;;;;;;;0.80;0.80;;;;;;;-0.32;100.00;100495.66;5042608;28;20118;-59
2024/01/29 06:52:10;;;;;;;0.80;0.80;;;;;;;-0.29;100.00;100487.47;5020921;28;20435;-59
2024/01/29 06:54:37;;;;;;;0.60;0.60;;;;;;;-0.17;100.00;100484.69;5040682;28;20073;-59
2024/01/29 06:57:04;;;;;;;0.70;0.70;;;;;;;-0.02;100.00;100496.44;5040816;28;20621;-59
2024/01/29 06:59:35;;;;;;;0.70;0.70;;;;;;;-0.28;100.00;100491.75;5019905;28;20045;-59
2024/01/29 07:02:03;;;;;;;;;;;;;;;-0.60;100.00;100493.88;5041150;28;20049;-59
2024/01/29 07:04:30;;;;;;;0.80;0.80;;;;;;;-0.68;100.00;100500.66;5021890;28;20322;-59
2024/01/29 07:06:57;;;;;;;0.90;0.90;;;;;;;-0.83;100.00;100499.41;5044056;28;20132;-59
2024/01/29 07:09:24;;;;;;;0.80;0.80;;;;;;;-0.84;100.00;100516.19;5044937;28;20158;-59
2024/01/29 07:11:52;;;;;;;0.80;0.80;;;;;;;-0.76;100.00;100511.06;5043880;28;20059;-58
2024/01/29 07:14:19;;;;;;;0.70;0.70;;;;;;;-0.74;100.00;100513.56;5038343;28;20482;-58
2024/01/29 07:16:47;;;;;;;0.90;0.90;;;;;;;-0.71;100.00;100514.13;5042232;28;20060;-58
2024/01/29 07:19:21;;;;;;;0.98;0.98;;;;;;;-0.49;100.00;100517.44;5043184;28;20128;-59
2024/01/29 07:21:49;;;;;;;0.77;0.77;;;;;;;-0.36;100.00;100515.34;5042978;28;20877;-59
2024/01/29 07:24:16;;;;;;;0.80;0.80;;;;;;;-0.05;100.00;100516.00;5044425;28;20135;-59
2024/01/29 07:26:43;;;;;;;0.70;0.70;;;;;;;0.06;100.00;100515.00;5044019;28;20479;-59
2024/01/29 07:29:11;;;;;;;0.75;0.75;;;;;;;-0.14;100.00;100519.50;5043689;28;20450;-58
2024/01/29 07:31:38;;;;;;;0.73;0.73;;;;;;;-0.11;100.00;100528.91;5042817;28;20099;-59
2024/01/29 07:34:06;;;;;;;0.73;0.73;;;;;;;-0.08;100.00;100529.44;5046460;28;20102;-59
2024/01/29 07:36:33;;;;;;;0.80;0.80;;;;;;;0.02;100.00;100529.44;5022361;28;20139;-59
2024/01/29 07:39:00;;;;;;;0.70;0.70;;;;;;;0.42;100.00;100530.97;5044294;28;20044;-59
2024/01/29 07:41:27;;;;;;;0.80;0.80;;;;;;;0.76;100.00;100533.88;5043807;28;20079;-59
2024/01/29 07:43:55;;;;;;;0.70;0.70;;;;;;;0.91;100.00;100538.69;5044765;28;20056;-57
2024/01/29 07:46:22;;;;;;;0.75;0.75;;;;;;;0.90;100.00;100529.94;5025608;28;20057;-59
2024/01/29 07:48:50;;;;;;;0.80;0.80;;;;;;;1.39;100.00;100535.72;5020307;28;20557;-59
2024/01/29 07:51:18;;;;;;;0.70;0.70;;;;;;;1.54;100.00;100538.66;5040975;28;20128;-59
2024/01/29 07:53:45;;;;;;;0.80;0.80;;;;;;;1.66;100.00;100532.16;5040327;28;20064;-59
2024/01/29 07:56:12;;;;;;;0.85;0.85;;;;;;;1.67;100.00;100528.53;5043995;28;20072;-59
2024/01/29 07:58:40;;;;;;;0.70;0.70;;;;;;;1.66;100.00;100526.03;5016460;28;20500;-59
2024/01/29 08:01:07;;;;;;;0.80;0.80;;;;;;;1.78;100.00;100530.09;5041542;28;20049;-59
2024/01/29 08:03:34;;;;;;;0.80;0.80;;;;;;;1.90;100.00;100534.16;5044179;28;20899;-59
2024/01/29 08:06:02;;;;;;;0.63;0.63;;;;;;;2.03;100.00;100527.63;5043294;28;20126;-59
2024/01/29 08:08:31;;;;;;;0.60;0.60;;;;;;;2.65;100.00;100533.59;5045513;28;20041;-59
2024/01/29 08:10:58;;;;;;;0.65;0.65;;;;;;;2.66;100.00;100535.25;5022367;28;20404;-59
2024/01/29 08:13:26;;;;;;;0.70;0.70;;;;;;;3.08;100.00;100523.00;5040253;28;20037;-59
2024/01/29 08:15:53;;;;;;;0.80;0.80;;;;;;;3.27;100.00;100522.69;5045238;28;20458;-59
2024/01/29 08:18:20;;;;;;;0.80;0.80;;;;;;;3.91;100.00;100522.88;5043962;28;20076;-60
2024/01/29 08:20:47;;;;;;;0.60;0.60;;;;;;;4.33;100.00;100535.06;5042815;28;20163;-60
2024/01/29 08:23:14;;;;;;;0.63;0.63;;;;;;;4.70;100.00;100530.97;5043925;28;20061;-59
2024/01/29 08:25:42;;;;;;;0.65;0.65;;;;;;;5.12;95.97;100529.78;5042263;28;20126;-59
2024/01/29 08:28:11;;;;;;;0.70;0.70;;;;;;;3.98;100.00;100526.50;5038929;28;20045;-59
2024/01/29 08:30:38;;;;;;;0.63;0.63;;;;;;;4.23;100.00;100534.44;5042276;28;20251;-60
2024/01/29 08:33:05;;;;;;;0.70;0.70;;;;;;;4.06;100.00;100539.75;5042790;28;20049;-59
2024/01/29 08:35:32;;;;;;;0.70;0.70;;;;;;;4.25;100.00;100538.56;5043455;28;20136;-60
2024/01/29 08:38:00;;;;;;;0.70;0.70;;;;;;;5.19;96.97;100536.03;5042482;28;20052;-59
2024/01/29 08:40:27;;;;;;;0.50;0.50;;;;;;;4.57;99.90;100533.34;5042941;28;20128;-59
2024/01/29 08:42:55;;;;;;;0.50;0.50;;;;;;;5.40;95.90;100538.91;5040744;28;20033;-59
2024/01/29 08:45:23;;;;;;;0.50;0.50;;;;;;;6.03;89.71;100536.09;5006474;28;20042;-60
2024/01/29 08:47:50;;;;;;;0.50;0.50;;;;;;;6.28;88.39;100538.53;5003237;28;20069;-59
2024/01/29 08:50:17;;;;;;;0.52;0.52;;;;;;;6.64;85.76;100535.94;5002775;28;20046;-60
2024/01/29 08:52:44;;;;;;;0.50;0.50;;;;;;;6.33;85.74;100534.31;4998920;28;20050;-60
2024/01/29 08:55:11;;;;;;;0.50;0.50;;;;;;;7.39;81.30;100533.94;5004557;28;20415;-60
2024/01/29 08:57:38;;;;;;;0.40;0.40;;;;;;;7.47;78.85;100544.53;5001840;28;20084;-59
2024/01/29 09:00:08;;;;;;;0.50;0.50;;;;;;;7.48;79.98;100544.31;5003146;28;20777;-59
2024/01/29 09:02:37;;;;;;;0.40;0.40;;;;;;;6.43;85.07;100542.03;5003635;28;20045;-60
2024/01/29 09:05:05;;;;;;;0.30;0.30;;;;;;;6.35;87.14;100555.44;5000482;28;20050;-59
2024/01/29 09:07:32;;;;;;;0.50;0.50;;;;;;;6.39;88.76;100546.03;5002845;28;20492;-59
2024/01/29 09:09:59;;;;;;;0.30;0.30;;;;;;;5.95;87.77;100557.47;5003864;28;20100;-59
2024/01/29 09:12:26;;;;;;;0.40;0.40;;;;;;;5.58;90.69;100561.72;4996253;28;20783;-60
2024/01/29 09:14:53;;;;;;;0.40;0.40;;;;;;;5.83;90.22;100571.16;5001076;28;20101;-59
2024/01/29 09:17:21;;;;;;;0.50;0.50;;;;;;;5.96;92.59;100559.94;5001726;28;20057;-59
2024/01/29 09:19:51;;;;;;;0.50;0.50;;;;;;;6.63;88.53;100560.94;5001478;28;20113;-60
2024/01/29 09:22:18;;;;;;;0.47;0.47;;;;;;;6.85;84.65;100559.19;5003717;28;20092;-59
2024/01/29 09:24:46;;;;;;;0.50;0.50;;;;;;;7.51;83.15;100559.97;5002034;28;20737;-59
2024/01/29 09:27:13;;;;;;;0.40;0.40;;;;;;;6.80;85.63;100557.06;5001700;28;20042;-58
2024/01/29 09:29:41;;;;;;;0.50;0.50;;;;;;;7.17;84.39;100562.47;5002837;28;20061;-58
2024/01/29 09:32:08;;;;;;;0.40;0.40;;;;;;;6.98;85.60;100564.69;5008718;28;20041;-59
2024/01/29 09:34:37;;;;;;;0.50;0.50;;;;;;;7.00;83.23;100567.16;5000372;28;20054;-58
2024/01/29 09:37:04;;;;;;;0.40;0.40;;;;;;;7.07;84.81;100562.75;5001658;28;20042;-58
2024/01/29 09:39:31;;;;;;;0.40;0.40;;;;;;;6.92;86.79;100557.44;5003592;28;20042;-58
2024/01/29 09:42:01;;;;;;;0.40;0.40;;;;;;;8.07;81.30;100558.41;5001857;28;20061;-58
2024/01/29 09:44:28;;;;;;;0.30;0.30;;;;;;;7.00;84.33;100564.50;5002210;28;20711;-58
2024/01/29 09:46:55;;;;;;;0.40;0.40;;;;;;;7.38;83.77;100562.47;4998394;28;20744;-58
2024/01/29 09:49:23;;;;;;;0.30;0.30;;;;;;;7.89;81.55;100562.38;5002327;28;20065;-58
2024/01/29 09:51:51;;;;;;;0.50;0.50;;;;;;;8.30;78.48;100564.31;5001516;28;20048;-58
2024/01/29 09:54:18;;;;;;;0.40;0.40;;;;;;;8.24;79.43;100567.78;5003818;28;20066;-58
2024/01/29 09:56:45;;;;;;;0.43;0.43;;;;;;;8.35;79.26;100567.22;5001795;28;20231;-58
2024/01/29 09:59:12;;;;;;;0.47;0.47;;;;;;;8.19;80.89;100573.69;5001461;28;20440;-58
2024/01/29 10:01:40;;;;;;;0.40;0.40;;;;;;;7.81;84.22;100562.47;5002554;28;20115;-58
2024/01/29 10:04:08;;;;;;;0.40;0.40;;;;;;;9.56;76.56;100569.47;5016792;28;20504;-58
2024/01/29 10:06:35;;;;;;;0.30;0.30;;;;;;;10.09;73.02;100564.13;5001928;28;20096;-58
2024/01/29 10:09:04;;;;;;;0.30;0.30;;;;;;;9.65;74.08;100560.19;4998910;28;20568;-58
2024/01/29 10:11:31;;;;;;;0.30;0.30;;;;;;;9.48;76.48;100567.78;5002195;28;20069;-59
2024/01/29 10:13:58;;;;;;;0.30;0.30;;;;;;;8.88;77.93;100565.91;4999145;28;20335;-58
2024/01/29 10:16:26;;;;;;;0.30;0.30;;;;;;;9.16;77.87;100564.00;5017743;28;20576;-59
2024/01/29 10:18:57;;;;;;;0.30;0.30;;;;;;;9.22;79.51;100573.06;5001066;28;20042;-59
2024/01/29 10:21:24;;;;;;;0.30;0.30;;;;;;;8.71;80.97;100562.75;5000015;28;20042;-59
2024/01/29 10:23:55;;;;;;;0.30;0.30;;;;;;;8.88;81.75;100560.56;5000582;28;20050;-59
2024/01/29 10:26:24;;;;;;;0.30;0.30;;;;;;;9.57;78.20;100565.75;5006540;28;20041;-59
2024/01/29 10:29:01;;;;;;;0.30;0.30;;;;;;;9.17;79.68;100559.47;5000290;28;20104;-59
2024/01/29 10:31:28;;;;;;;0.30;0.30;;;;;;;9.18;80.64;100561.91;5001970;28;20103;-59
2024/01/29 10:33:55;;;;;;;0.30;0.30;;;;;;;9.42;79.30;100567.78;5001877;28;20057;-59
2024/01/29 10:36:22;;;;;;;0.25;0.25;;;;;;;9.22;79.36;100568.53;5001170;28;20037;-59
2024/01/29 10:38:49;;;;;;;0.30;0.30;;;;;;;9.68;78.45;100565.16;5002178;28;20074;-58
2024/01/29 10:41:17;;;;;;;0.32;0.32;;;;;;;9.77;77.95;100554.25;5018420;28;20045;-59
2024/01/29 10:43:47;;;;;;;0.30;0.30;;;;;;;10.00;76.96;100548.47;5003606;28;20050;-59
2024/01/29 10:46:14;;;;;;;0.40;0.40;;;;;;;10.05;76.99;100552.19;5040368;28;20556;-59
2024/01/29 10:48:41;;;;;;;0.30;0.30;;;;;;;9.31;78.90;100546.94;5043437;28;20049;-59
2024/01/29 10:51:08;;;;;;;0.30;0.30;;;;;;;9.65;80.22;100549.47;5042632;28;20132;-59
2024/01/29 10:53:35;;;;;;;0.30;0.30;;;;;;;9.69;80.15;100547.22;5046467;28;20682;-59
2024/01/29 10:56:03;;;;;;;0.30;0.30;;;;;;;9.76;79.79;100541.88;5043317;28;20081;-59
2024/01/29 10:58:30;;;;;;;0.30;0.30;;;;;;;10.18;76.61;100537.13;5043650;28;20388;-59
2024/01/29 11:00:58;;;;;;;0.20;0.20;;;;;;;10.13;77.76;100540.41;5044917;28;20455;-59
2024/01/29 11:03:26;;;;;;;0.30;0.30;;;;;;;10.15;78.60;100536.50;5015140;28;20048;-59
2024/01/29 11:05:55;;;;;;;0.30;0.30;;;;;;;10.08;79.17;100533.03;5037895;28;20057;-59
2024/01/29 11:08:24;;;;;;;0.20;0.20;;;;;;;10.53;76.39;100524.31;5042095;28;20052;-59
2024/01/29 11:10:51;;;;;;;0.20;0.20;;;;;;;10.39;76.92;100533.44;5039816;28;20151;-58
2024/01/29 11:13:18;;;;;;;0.20;0.20;;;;;;;10.05;79.06;100528.06;5044692;28;20045;-59
2024/01/29 11:15:45;;;;;;;0.30;0.30;;;;;;;9.98;80.82;100518.38;5044266;28;20045;-59
2024/01/29 11:18:14;;;;;;;0.30;0.30;;;;;;;10.42;77.07;100509.69;5039963;28;20045;-59
2024/01/29 11:20:41;;;;;;;0.30;0.30;;;;;;;11.09;75.02;100517.50;5043835;28;20538;-59
2024/01/29 11:23:10;;;;;;;0.30;0.30;;;;;;;10.57;76.91;100512.97;5044756;28;20041;-59
2024/01/29 11:25:37;;;;;;;0.20;0.20;;;;;;;10.42;78.69;100503.53;5045182;28;20466;-59
2024/01/29 11:28:08;;;;;;;0.20;0.20;;;;;;;10.50;79.24;100505.97;5043788;28;20103;-59